sensor_id;sensor_type;location;lat;lon;timestamp;P1;durP1;ratioP1;P2;durP2;ratioP2
15281;SDS011;7742;44.320;19.820;2023-06-14T00:01:11;20.23;;;18.77;;
15281;SDS011;7742;44.320;19.820;2023-06-14T00:03:38;20.67;;;19.33;;
15281;SDS011;7742;44.320;19.820;2023-06-14T00:06:05;22.13;;;20.70;;
15281;SDS011;7742;44.320;19.820;2023-06-14T00:08:33;22.10;;;20.60;;
15281;SDS011;7742;44.320;19.820;2023-06-14T00:11:01;21.77;;;20.23;;
15281;SDS011;7742;44.320;19.820;2023-06-14T00:13:28;21.27;;;19.83;;
15281;SDS011;7742;44.320;19.820;2023-06-14T00:15:55;21.20;;;19.83;;
15281;SDS011;7742;44.320;19.820;2023-06-14T00:18:22;21.20;;;19.93;;
15281;SDS011;7742;44.320;19.820;2023-06-14T00:20:50;21.73;;;20.17;;
15281;SDS011;7742;44.320;19.820;2023-06-14T00:23:17;20.83;;;19.43;;
15281;SDS011;7742;44.320;19.820;2023-06-14T00:25:44;19.13;;;17.83;;
15281;SDS011;7742;44.320;19.820;2023-06-14T00:28:13;19.10;;;18.00;;
15281;SDS011;7742;44.320;19.820;2023-06-14T00:30:39;20.03;;;18.50;;
15281;SDS011;7742;44.320;19.820;2023-06-14T00:33:07;20.57;;;19.13;;
15281;SDS011;7742;44.320;19.820;2023-06-14T00:35:34;19.93;;;18.63;;
15281;SDS011;7742;44.320;19.820;2023-06-14T00:38:01;21.00;;;19.60;;
15281;SDS011;7742;44.320;19.820;2023-06-14T00:40:28;19.30;;;18.07;;
15281;SDS011;7742;44.320;19.820;2023-06-14T00:42:55;19.33;;;18.13;;
15281;SDS011;7742;44.320;19.820;2023-06-14T00:48:18;20.97;;;19.57;;
15281;SDS011;7742;44.320;19.820;2023-06-14T00:50:46;19.73;;;18.43;;
15281;SDS011;7742;44.320;19.820;2023-06-14T00:53:14;20.07;;;18.77;;
15281;SDS011;7742;44.320;19.820;2023-06-14T00:55:42;19.70;;;18.50;;
15281;SDS011;7742;44.320;19.820;2023-06-14T00:58:09;19.90;;;18.70;;
15281;SDS011;7742;44.320;19.820;2023-06-14T01:00:36;19.53;;;18.33;;
15281;SDS011;7742;44.320;19.820;2023-06-14T01:03:03;18.47;;;17.27;;
15281;SDS011;7742;44.320;19.820;2023-06-14T01:05:32;18.17;;;17.17;;
15281;SDS011;7742;44.320;19.820;2023-06-14T01:08:05;18.50;;;17.30;;
15281;SDS011;7742;44.320;19.820;2023-06-14T01:10:37;19.43;;;18.20;;
15281;SDS011;7742;44.320;19.820;2023-06-14T01:13:08;19.63;;;18.33;;
15281;SDS011;7742;44.320;19.820;2023-06-14T01:15:37;18.93;;;17.63;;
15281;SDS011;7742;44.320;19.820;2023-06-14T01:18:05;18.50;;;17.40;;
15281;SDS011;7742;44.320;19.820;2023-06-14T01:20:33;19.63;;;18.07;;
15281;SDS011;7742;44.320;19.820;2023-06-14T01:23:04;18.20;;;17.10;;
15281;SDS011;7742;44.320;19.820;2023-06-14T01:25:31;18.57;;;17.17;;
15281;SDS011;7742;44.320;19.820;2023-06-14T01:27:58;18.60;;;17.40;;
15281;SDS011;7742;44.320;19.820;2023-06-14T01:30:26;18.10;;;16.97;;
15281;SDS011;7742;44.320;19.820;2023-06-14T01:32:53;19.20;;;17.87;;
15281;SDS011;7742;44.320;19.820;2023-06-14T01:35:21;17.80;;;16.70;;
15281;SDS011;7742;44.320;19.820;2023-06-14T01:37:49;17.50;;;16.40;;
15281;SDS011;7742;44.320;19.820;2023-06-14T01:40:19;18.23;;;17.13;;
15281;SDS011;7742;44.320;19.820;2023-06-14T01:42:47;19.20;;;18.00;;
15281;SDS011;7742;44.320;19.820;2023-06-14T01:45:17;18.43;;;17.20;;
15281;SDS011;7742;44.320;19.820;2023-06-14T01:47:45;19.93;;;18.43;;
15281;SDS011;7742;44.320;19.820;2023-06-14T01:50:13;18.23;;;17.03;;
15281;SDS011;7742;44.320;19.820;2023-06-14T01:52:40;17.93;;;16.83;;
15281;SDS011;7742;44.320;19.820;2023-06-14T01:55:07;15.80;;;14.87;;
15281;SDS011;7742;44.320;19.820;2023-06-14T01:57:35;16.87;;;15.67;;
15281;SDS011;7742;44.320;19.820;2023-06-14T02:00:03;15.77;;;14.67;;
15281;SDS011;7742;44.320;19.820;2023-06-14T02:02:33;15.87;;;14.97;;
15281;SDS011;7742;44.320;19.820;2023-06-14T02:05:00;17.00;;;15.80;;
15281;SDS011;7742;44.320;19.820;2023-06-14T02:07:27;16.07;;;15.07;;
15281;SDS011;7742;44.320;19.820;2023-06-14T02:09:54;18.77;;;17.57;;
15281;SDS011;7742;44.320;19.820;2023-06-14T02:12:21;18.73;;;17.50;;
15281;SDS011;7742;44.320;19.820;2023-06-14T02:14:50;19.47;;;18.27;;
15281;SDS011;7742;44.320;19.820;2023-06-14T02:17:17;18.80;;;17.67;;
15281;SDS011;7742;44.320;19.820;2023-06-14T02:19:44;19.30;;;17.80;;
15281;SDS011;7742;44.320;19.820;2023-06-14T02:22:11;18.43;;;17.23;;
15281;SDS011;7742;44.320;19.820;2023-06-14T02:24:40;18.77;;;17.70;;
15281;SDS011;7742;44.320;19.820;2023-06-14T02:27:07;18.70;;;17.50;;
15281;SDS011;7742;44.320;19.820;2023-06-14T02:29:35;18.00;;;16.90;;
15281;SDS011;7742;44.320;19.820;2023-06-14T02:32:04;18.80;;;17.73;;
15281;SDS011;7742;44.320;19.820;2023-06-14T02:34:32;18.83;;;17.60;;
15281;SDS011;7742;44.320;19.820;2023-06-14T02:36:59;18.73;;;17.63;;
15281;SDS011;7742;44.320;19.820;2023-06-14T02:39:28;19.53;;;18.23;;
15281;SDS011;7742;44.320;19.820;2023-06-14T02:41:55;19.27;;;17.90;;
15281;SDS011;7742;44.320;19.820;2023-06-14T02:44:24;18.70;;;17.53;;
15281;SDS011;7742;44.320;19.820;2023-06-14T02:46:52;18.90;;;17.60;;
15281;SDS011;7742;44.320;19.820;2023-06-14T02:49:20;19.27;;;18.17;;
15281;SDS011;7742;44.320;19.820;2023-06-14T02:51:47;18.63;;;17.23;;
15281;SDS011;7742;44.320;19.820;2023-06-14T02:54:14;17.40;;;16.20;;
15281;SDS011;7742;44.320;19.820;2023-06-14T02:56:41;16.93;;;16.03;;
15281;SDS011;7742;44.320;19.820;2023-06-14T02:59:08;18.60;;;17.40;;
15281;SDS011;7742;44.320;19.820;2023-06-14T03:01:35;19.80;;;18.70;;
15281;SDS011;7742;44.320;19.820;2023-06-14T03:04:06;19.53;;;18.23;;
15281;SDS011;7742;44.320;19.820;2023-06-14T03:06:34;19.03;;;17.93;;
15281;SDS011;7742;44.320;19.820;2023-06-14T03:09:01;18.87;;;17.67;;
15281;SDS011;7742;44.320;19.820;2023-06-14T03:11:29;19.63;;;18.53;;
15281;SDS011;7742;44.320;19.820;2023-06-14T03:13:56;19.77;;;18.73;;
15281;SDS011;7742;44.320;19.820;2023-06-14T03:16:24;19.03;;;17.93;;
15281;SDS011;7742;44.320;19.820;2023-06-14T03:18:54;22.17;;;20.47;;
15281;SDS011;7742;44.320;19.820;2023-06-14T03:21:21;18.60;;;17.30;;
15281;SDS011;7742;44.320;19.820;2023-06-14T03:23:49;16.43;;;15.43;;
15281;SDS011;7742;44.320;19.820;2023-06-14T03:26:16;17.57;;;16.63;;
15281;SDS011;7742;44.320;19.820;2023-06-14T03:28:44;18.27;;;17.17;;
15281;SDS011;7742;44.320;19.820;2023-06-14T03:31:11;19.00;;;17.90;;
15281;SDS011;7742;44.320;19.820;2023-06-14T03:33:38;18.63;;;17.63;;
15281;SDS011;7742;44.320;19.820;2023-06-14T03:36:05;20.03;;;18.77;;
15281;SDS011;7742;44.320;19.820;2023-06-14T03:38:33;19.93;;;18.83;;
15281;SDS011;7742;44.320;19.820;2023-06-14T03:41:04;20.10;;;18.90;;
15281;SDS011;7742;44.320;19.820;2023-06-14T03:43:31;20.07;;;18.83;;
15281;SDS011;7742;44.320;19.820;2023-06-14T03:45:58;19.70;;;18.50;;
15281;SDS011;7742;44.320;19.820;2023-06-14T03:48:25;18.50;;;17.40;;
15281;SDS011;7742;44.320;19.820;2023-06-14T03:50:52;18.97;;;17.87;;
15281;SDS011;7742;44.320;19.820;2023-06-14T03:53:20;18.67;;;17.53;;
15281;SDS011;7742;44.320;19.820;2023-06-14T03:55:48;18.77;;;17.60;;
15281;SDS011;7742;44.320;19.820;2023-06-14T03:58:19;19.67;;;18.27;;
15281;SDS011;7742;44.320;19.820;2023-06-14T04:00:46;19.73;;;18.40;;
15281;SDS011;7742;44.320;19.820;2023-06-14T04:03:13;19.30;;;18.10;;
15281;SDS011;7742;44.320;19.820;2023-06-14T04:05:40;20.60;;;19.00;;
15281;SDS011;7742;44.320;19.820;2023-06-14T04:08:07;19.43;;;18.13;;
15281;SDS011;7742;44.320;19.820;2023-06-14T04:10:35;19.67;;;18.30;;
15281;SDS011;7742;44.320;19.820;2023-06-14T04:13:02;19.07;;;17.97;;
15281;SDS011;7742;44.320;19.820;2023-06-14T04:15:31;20.37;;;19.17;;
15281;SDS011;7742;44.320;19.820;2023-06-14T04:17:58;18.90;;;17.80;;
15281;SDS011;7742;44.320;19.820;2023-06-14T04:20:25;19.30;;;17.97;;
15281;SDS011;7742;44.320;19.820;2023-06-14T04:22:52;19.97;;;18.73;;
15281;SDS011;7742;44.320;19.820;2023-06-14T04:25:19;19.97;;;18.77;;
15281;SDS011;7742;44.320;19.820;2023-06-14T04:27:47;18.50;;;17.50;;
15281;SDS011;7742;44.320;19.820;2023-06-14T04:30:15;18.00;;;17.00;;
15281;SDS011;7742;44.320;19.820;2023-06-14T04:32:43;19.20;;;18.00;;
15281;SDS011;7742;44.320;19.820;2023-06-14T04:35:11;19.93;;;18.33;;
15281;SDS011;7742;44.320;19.820;2023-06-14T04:37:38;21.73;;;20.33;;
15281;SDS011;7742;44.320;19.820;2023-06-14T04:40:07;20.40;;;19.17;;
15281;SDS011;7742;44.320;19.820;2023-06-14T04:42:34;19.13;;;18.03;;
15281;SDS011;7742;44.320;19.820;2023-06-14T04:45:02;19.30;;;18.10;;
15281;SDS011;7742;44.320;19.820;2023-06-14T04:47:29;19.80;;;18.60;;
15281;SDS011;7742;44.320;19.820;2023-06-14T04:49:58;21.27;;;20.03;;
15281;SDS011;7742;44.320;19.820;2023-06-14T04:52:25;20.57;;;19.33;;
15281;SDS011;7742;44.320;19.820;2023-06-14T04:54:54;20.73;;;19.43;;
15281;SDS011;7742;44.320;19.820;2023-06-14T04:57:22;20.80;;;19.70;;
15281;SDS011;7742;44.320;19.820;2023-06-14T04:59:50;20.93;;;19.63;;
15281;SDS011;7742;44.320;19.820;2023-06-14T05:02:20;21.80;;;20.50;;
15281;SDS011;7742;44.320;19.820;2023-06-14T05:04:47;21.23;;;20.03;;
15281;SDS011;7742;44.320;19.820;2023-06-14T05:07:16;21.43;;;20.00;;
15281;SDS011;7742;44.320;19.820;2023-06-14T05:09:42;21.33;;;20.07;;
15281;SDS011;7742;44.320;19.820;2023-06-14T05:12:09;23.40;;;21.70;;
15281;SDS011;7742;44.320;19.820;2023-06-14T05:14:36;20.70;;;19.50;;
15281;SDS011;7742;44.320;19.820;2023-06-14T05:17:03;20.70;;;19.50;;
15281;SDS011;7742;44.320;19.820;2023-06-14T05:19:31;18.03;;;16.90;;
15281;SDS011;7742;44.320;19.820;2023-06-14T05:21:58;19.63;;;18.23;;
15281;SDS011;7742;44.320;19.820;2023-06-14T05:24:26;22.23;;;20.93;;
15281;SDS011;7742;44.320;19.820;2023-06-14T05:26:54;20.37;;;19.07;;
15281;SDS011;7742;44.320;19.820;2023-06-14T05:29:21;19.77;;;18.47;;
15281;SDS011;7742;44.320;19.820;2023-06-14T05:31:48;18.10;;;17.00;;
15281;SDS011;7742;44.320;19.820;2023-06-14T05:34:15;17.03;;;16.03;;
15281;SDS011;7742;44.320;19.820;2023-06-14T05:36:42;18.13;;;16.97;;
15281;SDS011;7742;44.320;19.820;2023-06-14T05:39:09;17.53;;;16.43;;
15281;SDS011;7742;44.320;19.820;2023-06-14T05:41:38;18.13;;;17.13;;
15281;SDS011;7742;44.320;19.820;2023-06-14T05:44:04;18.10;;;16.87;;
15281;SDS011;7742;44.320;19.820;2023-06-14T05:46:32;18.27;;;17.07;;
15281;SDS011;7742;44.320;19.820;2023-06-14T05:48:59;18.47;;;17.23;;
15281;SDS011;7742;44.320;19.820;2023-06-14T05:51:26;20.40;;;18.87;;
15281;SDS011;7742;44.320;19.820;2023-06-14T05:53:54;18.80;;;17.40;;
15281;SDS011;7742;44.320;19.820;2023-06-14T05:56:22;19.25;;;17.95;;
15281;SDS011;7742;44.320;19.820;2023-06-14T05:58:50;19.40;;;17.98;;
15281;SDS011;7742;44.320;19.820;2023-06-14T06:01:17;18.60;;;17.25;;
15281;SDS011;7742;44.320;19.820;2023-06-14T06:03:44;19.20;;;17.98;;
15281;SDS011;7742;44.320;19.820;2023-06-14T06:06:13;18.92;;;17.80;;
15281;SDS011;7742;44.320;19.820;2023-06-14T06:08:40;19.70;;;18.50;;
15281;SDS011;7742;44.320;19.820;2023-06-14T06:11:07;19.35;;;18.00;;
15281;SDS011;7742;44.320;19.820;2023-06-14T06:13:34;21.75;;;20.55;;
15281;SDS011;7742;44.320;19.820;2023-06-14T06:16:03;19.70;;;18.50;;
15281;SDS011;7742;44.320;19.820;2023-06-14T06:18:30;19.23;;;18.13;;
15281;SDS011;7742;44.320;19.820;2023-06-14T06:20:58;22.20;;;21.10;;
15281;SDS011;7742;44.320;19.820;2023-06-14T06:23:28;19.10;;;18.00;;
15281;SDS011;7742;44.320;19.820;2023-06-14T06:25:55;18.08;;;16.88;;
15281;SDS011;7742;44.320;19.820;2023-06-14T06:28:22;17.17;;;16.20;;
15281;SDS011;7742;44.320;19.820;2023-06-14T06:30:49;17.13;;;16.00;;
15281;SDS011;7742;44.320;19.820;2023-06-14T06:33:17;15.07;;;14.27;;
15281;SDS011;7742;44.320;19.820;2023-06-14T06:35:44;15.65;;;14.70;;
15281;SDS011;7742;44.320;19.820;2023-06-14T06:38:11;14.68;;;13.88;;
15281;SDS011;7742;44.320;19.820;2023-06-14T06:40:38;13.70;;;12.80;;
15281;SDS011;7742;44.320;19.820;2023-06-14T06:43:05;17.05;;;16.00;;
15281;SDS011;7742;44.320;19.820;2023-06-14T06:45:31;16.73;;;15.60;;
15281;SDS011;7742;44.320;19.820;2023-06-14T06:47:58;18.85;;;17.60;;
15281;SDS011;7742;44.320;19.820;2023-06-14T06:50:29;18.17;;;17.27;;
15281;SDS011;7742;44.320;19.820;2023-06-14T06:52:56;17.55;;;16.60;;
15281;SDS011;7742;44.320;19.820;2023-06-14T06:55:23;17.07;;;15.97;;
15281;SDS011;7742;44.320;19.820;2023-06-14T06:57:50;15.47;;;14.57;;
15281;SDS011;7742;44.320;19.820;2023-06-14T07:00:19;15.80;;;14.80;;
15281;SDS011;7742;44.320;19.820;2023-06-14T07:02:46;17.77;;;16.57;;
15281;SDS011;7742;44.320;19.820;2023-06-14T07:05:16;18.23;;;17.23;;
15281;SDS011;7742;44.320;19.820;2023-06-14T07:07:44;16.90;;;15.90;;
15281;SDS011;7742;44.320;19.820;2023-06-14T07:10:11;18.70;;;17.47;;
15281;SDS011;7742;44.320;19.820;2023-06-14T07:12:38;18.03;;;17.03;;
15281;SDS011;7742;44.320;19.820;2023-06-14T07:15:06;18.30;;;17.10;;
15281;SDS011;7742;44.320;19.820;2023-06-14T07:17:34;16.30;;;15.40;;
15281;SDS011;7742;44.320;19.820;2023-06-14T07:20:02;16.83;;;15.93;;
15281;SDS011;7742;44.320;19.820;2023-06-14T07:22:37;18.30;;;17.30;;
15281;SDS011;7742;44.320;19.820;2023-06-14T07:25:06;17.10;;;16.00;;
15281;SDS011;7742;44.320;19.820;2023-06-14T07:27:33;17.77;;;16.47;;
15281;SDS011;7742;44.320;19.820;2023-06-14T07:30:00;16.97;;;15.67;;
15281;SDS011;7742;44.320;19.820;2023-06-14T07:32:27;18.97;;;17.80;;
15281;SDS011;7742;44.320;19.820;2023-06-14T07:34:55;17.90;;;16.93;;
15281;SDS011;7742;44.320;19.820;2023-06-14T07:37:22;18.00;;;16.90;;
15281;SDS011;7742;44.320;19.820;2023-06-14T07:39:49;16.33;;;15.53;;
15281;SDS011;7742;44.320;19.820;2023-06-14T07:42:17;17.47;;;16.60;;
15281;SDS011;7742;44.320;19.820;2023-06-14T07:44:44;15.77;;;14.97;;
15281;SDS011;7742;44.320;19.820;2023-06-14T07:47:11;16.47;;;15.47;;
15281;SDS011;7742;44.320;19.820;2023-06-14T07:49:38;18.67;;;17.67;;
15281;SDS011;7742;44.320;19.820;2023-06-14T07:52:06;17.20;;;16.30;;
15281;SDS011;7742;44.320;19.820;2023-06-14T07:54:33;19.10;;;18.00;;
15281;SDS011;7742;44.320;19.820;2023-06-14T07:57:01;17.03;;;16.07;;
15281;SDS011;7742;44.320;19.820;2023-06-14T07:59:36;20.33;;;19.23;;
15281;SDS011;7742;44.320;19.820;2023-06-14T08:02:03;16.93;;;16.13;;
15281;SDS011;7742;44.320;19.820;2023-06-14T08:04:31;19.80;;;18.70;;
15281;SDS011;7742;44.320;19.820;2023-06-14T08:06:58;21.97;;;20.83;;
15281;SDS011;7742;44.320;19.820;2023-06-14T08:09:26;20.63;;;19.53;;
15281;SDS011;7742;44.320;19.820;2023-06-14T08:11:54;21.07;;;19.87;;
15281;SDS011;7742;44.320;19.820;2023-06-14T08:14:21;18.37;;;17.37;;
15281;SDS011;7742;44.320;19.820;2023-06-14T08:16:49;18.20;;;17.20;;
15281;SDS011;7742;44.320;19.820;2023-06-14T08:19:16;20.73;;;19.53;;
15281;SDS011;7742;44.320;19.820;2023-06-14T08:21:43;21.20;;;20.20;;
15281;SDS011;7742;44.320;19.820;2023-06-14T08:24:13;20.77;;;19.63;;
15281;SDS011;7742;44.320;19.820;2023-06-14T08:26:44;20.60;;;19.40;;
15281;SDS011;7742;44.320;19.820;2023-06-14T08:29:15;17.87;;;16.77;;
15281;SDS011;7742;44.320;19.820;2023-06-14T08:31:43;18.00;;;16.90;;
15281;SDS011;7742;44.320;19.820;2023-06-14T08:34:11;20.30;;;19.10;;
15281;SDS011;7742;44.320;19.820;2023-06-14T08:36:38;18.50;;;17.30;;
15281;SDS011;7742;44.320;19.820;2023-06-14T08:39:06;16.30;;;15.37;;
15281;SDS011;7742;44.320;19.820;2023-06-14T08:41:34;16.63;;;15.73;;
15281;SDS011;7742;44.320;19.820;2023-06-14T08:44:02;16.00;;;15.10;;
15281;SDS011;7742;44.320;19.820;2023-06-14T08:46:29;15.83;;;14.83;;
15281;SDS011;7742;44.320;19.820;2023-06-14T08:48:59;16.37;;;15.37;;
15281;SDS011;7742;44.320;19.820;2023-06-14T08:51:27;16.90;;;16.00;;
15281;SDS011;7742;44.320;19.820;2023-06-14T08:53:59;17.27;;;16.27;;
15281;SDS011;7742;44.320;19.820;2023-06-14T08:56:27;16.77;;;15.97;;
15281;SDS011;7742;44.320;19.820;2023-06-14T08:58:54;17.60;;;16.60;;
15281;SDS011;7742;44.320;19.820;2023-06-14T09:01:25;16.20;;;15.37;;
15281;SDS011;7742;44.320;19.820;2023-06-14T09:03:53;17.03;;;16.10;;
15281;SDS011;7742;44.320;19.820;2023-06-14T09:06:22;18.50;;;17.50;;
15281;SDS011;7742;44.320;19.820;2023-06-14T09:08:51;17.60;;;16.70;;
15281;SDS011;7742;44.320;19.820;2023-06-14T09:11:19;17.83;;;16.93;;
15281;SDS011;7742;44.320;19.820;2023-06-14T09:13:46;17.37;;;16.57;;
15281;SDS011;7742;44.320;19.820;2023-06-14T09:16:13;17.80;;;16.80;;
15281;SDS011;7742;44.320;19.820;2023-06-14T09:18:41;17.20;;;16.30;;
15281;SDS011;7742;44.320;19.820;2023-06-14T09:21:10;17.77;;;16.87;;
15281;SDS011;7742;44.320;19.820;2023-06-14T09:23:37;17.90;;;16.80;;
15281;SDS011;7742;44.320;19.820;2023-06-14T09:26:10;16.50;;;15.50;;
15281;SDS011;7742;44.320;19.820;2023-06-14T09:28:41;16.57;;;15.67;;
15281;SDS011;7742;44.320;19.820;2023-06-14T09:31:08;15.80;;;14.93;;
15281;SDS011;7742;44.320;19.820;2023-06-14T09:33:35;16.30;;;15.50;;
15281;SDS011;7742;44.320;19.820;2023-06-14T09:36:02;17.03;;;16.03;;
15281;SDS011;7742;44.320;19.820;2023-06-14T09:38:30;15.10;;;14.40;;
15281;SDS011;7742;44.320;19.820;2023-06-14T09:40:58;16.60;;;15.80;;
15281;SDS011;7742;44.320;19.820;2023-06-14T09:43:26;15.47;;;14.67;;
15281;SDS011;7742;44.320;19.820;2023-06-14T09:45:54;15.80;;;15.00;;
15281;SDS011;7742;44.320;19.820;2023-06-14T09:48:21;15.43;;;14.63;;
15281;SDS011;7742;44.320;19.820;2023-06-14T09:50:49;16.97;;;16.13;;
15281;SDS011;7742;44.320;19.820;2023-06-14T09:53:20;16.77;;;15.97;;
15281;SDS011;7742;44.320;19.820;2023-06-14T09:55:48;17.33;;;16.43;;
15281;SDS011;7742;44.320;19.820;2023-06-14T09:58:16;15.30;;;14.50;;
15281;SDS011;7742;44.320;19.820;2023-06-14T10:00:49;16.40;;;15.60;;
15281;SDS011;7742;44.320;19.820;2023-06-14T10:03:19;16.37;;;15.57;;
15281;SDS011;7742;44.320;19.820;2023-06-14T10:05:47;16.60;;;15.80;;
15281;SDS011;7742;44.320;19.820;2023-06-14T11:23:57;16.10;;;15.30;;
15281;SDS011;7742;44.320;19.820;2023-06-14T11:26:25;15.83;;;15.03;;
15281;SDS011;7742;44.320;19.820;2023-06-14T11:28:54;16.10;;;15.20;;
15281;SDS011;7742;44.320;19.820;2023-06-14T11:31:21;16.10;;;15.30;;
15281;SDS011;7742;44.320;19.820;2023-06-14T11:33:49;16.90;;;15.93;;
15281;SDS011;7742;44.320;19.820;2023-06-14T11:36:16;18.27;;;17.20;;
15281;SDS011;7742;44.320;19.820;2023-06-14T11:38:44;18.23;;;17.23;;
15281;SDS011;7742;44.320;19.820;2023-06-14T11:41:12;18.20;;;17.20;;
15281;SDS011;7742;44.320;19.820;2023-06-14T11:43:40;18.37;;;17.17;;
15281;SDS011;7742;44.320;19.820;2023-06-14T11:46:13;16.57;;;15.50;;
15281;SDS011;7742;44.320;19.820;2023-06-14T11:48:42;16.43;;;15.63;;
15281;SDS011;7742;44.320;19.820;2023-06-14T12:04:12;18.10;;;17.10;;
15281;SDS011;7742;44.320;19.820;2023-06-14T12:06:40;16.60;;;15.60;;
15281;SDS011;7742;44.320;19.820;2023-06-14T12:09:08;16.87;;;15.87;;
15281;SDS011;7742;44.320;19.820;2023-06-14T12:11:38;17.67;;;16.77;;
15281;SDS011;7742;44.320;19.820;2023-06-14T12:14:05;18.13;;;17.13;;
15281;SDS011;7742;44.320;19.820;2023-06-14T12:16:32;17.67;;;16.67;;
15281;SDS011;7742;44.320;19.820;2023-06-14T12:19:01;18.07;;;17.07;;
15281;SDS011;7742;44.320;19.820;2023-06-14T12:21:30;17.40;;;16.50;;
15281;SDS011;7742;44.320;19.820;2023-06-14T12:23:58;17.43;;;16.53;;
15281;SDS011;7742;44.320;19.820;2023-06-14T12:26:25;20.67;;;19.67;;
15281;SDS011;7742;44.320;19.820;2023-06-14T12:28:53;18.97;;;17.97;;
15281;SDS011;7742;44.320;19.820;2023-06-14T12:31:20;20.80;;;19.80;;
15281;SDS011;7742;44.320;19.820;2023-06-14T12:33:47;17.37;;;16.43;;
15281;SDS011;7742;44.320;19.820;2023-06-14T12:36:15;20.40;;;19.40;;
15281;SDS011;7742;44.320;19.820;2023-06-14T12:38:43;21.07;;;20.07;;
15281;SDS011;7742;44.320;19.820;2023-06-14T12:41:11;18.60;;;17.50;;
15281;SDS011;7742;44.320;19.820;2023-06-14T12:43:40;18.93;;;17.87;;
15281;SDS011;7742;44.320;19.820;2023-06-14T12:46:07;31.33;;;29.93;;
15281;SDS011;7742;44.320;19.820;2023-06-14T12:48:34;20.40;;;19.37;;
15281;SDS011;7742;44.320;19.820;2023-06-14T12:51:01;19.07;;;17.77;;
15281;SDS011;7742;44.320;19.820;2023-06-14T12:53:28;20.00;;;18.87;;
15281;SDS011;7742;44.320;19.820;2023-06-14T12:55:57;19.20;;;18.13;;
15281;SDS011;7742;44.320;19.820;2023-06-14T12:58:24;19.40;;;18.40;;
15281;SDS011;7742;44.320;19.820;2023-06-14T13:00:50;21.37;;;20.37;;
15281;SDS011;7742;44.320;19.820;2023-06-14T13:03:17;21.47;;;20.47;;
15281;SDS011;7742;44.320;19.820;2023-06-14T13:05:45;22.07;;;20.77;;
15281;SDS011;7742;44.320;19.820;2023-06-14T13:08:13;20.77;;;19.57;;
15281;SDS011;7742;44.320;19.820;2023-06-14T13:10:40;20.90;;;19.70;;
15281;SDS011;7742;44.320;19.820;2023-06-14T13:13:09;20.07;;;19.07;;
15281;SDS011;7742;44.320;19.820;2023-06-14T13:15:37;19.10;;;17.90;;
15281;SDS011;7742;44.320;19.820;2023-06-14T13:18:06;19.03;;;17.93;;
15281;SDS011;7742;44.320;19.820;2023-06-14T13:20:33;19.43;;;18.23;;
15281;SDS011;7742;44.320;19.820;2023-06-14T13:23:00;18.37;;;17.40;;
15281;SDS011;7742;44.320;19.820;2023-06-14T13:25:29;20.60;;;19.50;;
15281;SDS011;7742;44.320;19.820;2023-06-14T13:27:56;18.40;;;17.47;;
15281;SDS011;7742;44.320;19.820;2023-06-14T13:30:24;15.83;;;15.03;;
15281;SDS011;7742;44.320;19.820;2023-06-14T13:32:51;15.70;;;14.90;;
15281;SDS011;7742;44.320;19.820;2023-06-14T13:35:18;15.53;;;14.73;;
15281;SDS011;7742;44.320;19.820;2023-06-14T13:37:45;15.67;;;14.97;;
15281;SDS011;7742;44.320;19.820;2023-06-14T13:40:12;15.40;;;14.70;;
15281;SDS011;7742;44.320;19.820;2023-06-14T13:42:39;16.17;;;15.37;;
15281;SDS011;7742;44.320;19.820;2023-06-14T13:45:07;16.37;;;15.53;;
15281;SDS011;7742;44.320;19.820;2023-06-14T13:47:35;16.57;;;15.67;;
15281;SDS011;7742;44.320;19.820;2023-06-14T13:50:03;17.07;;;16.07;;
15281;SDS011;7742;44.320;19.820;2023-06-14T13:52:30;16.90;;;15.90;;
15281;SDS011;7742;44.320;19.820;2023-06-14T13:54:57;16.60;;;15.70;;
15281;SDS011;7742;44.320;19.820;2023-06-14T13:57:24;17.20;;;16.27;;
15281;SDS011;7742;44.320;19.820;2023-06-14T13:59:51;18.00;;;16.90;;
15281;SDS011;7742;44.320;19.820;2023-06-14T14:02:18;16.83;;;15.83;;
15281;SDS011;7742;44.320;19.820;2023-06-14T14:04:47;18.07;;;16.97;;
15281;SDS011;7742;44.320;19.820;2023-06-14T14:07:18;15.80;;;14.90;;
15281;SDS011;7742;44.320;19.820;2023-06-14T14:09:46;16.57;;;15.77;;
15281;SDS011;7742;44.320;19.820;2023-06-14T14:12:12;16.43;;;15.57;;
15281;SDS011;7742;44.320;19.820;2023-06-14T14:14:40;17.37;;;16.47;;
15281;SDS011;7742;44.320;19.820;2023-06-14T14:17:07;16.77;;;15.80;;
15281;SDS011;7742;44.320;19.820;2023-06-14T14:19:34;16.40;;;15.60;;
15281;SDS011;7742;44.320;19.820;2023-06-14T14:22:02;16.27;;;15.37;;
15281;SDS011;7742;44.320;19.820;2023-06-14T14:24:29;15.30;;;14.50;;
15281;SDS011;7742;44.320;19.820;2023-06-14T14:26:56;15.47;;;14.67;;
15281;SDS011;7742;44.320;19.820;2023-06-14T14:29:25;15.03;;;14.33;;
15281;SDS011;7742;44.320;19.820;2023-06-14T14:31:54;16.63;;;15.77;;
15281;SDS011;7742;44.320;19.820;2023-06-14T14:34:21;17.17;;;16.07;;
15281;SDS011;7742;44.320;19.820;2023-06-14T14:36:48;16.00;;;15.10;;
15281;SDS011;7742;44.320;19.820;2023-06-14T14:39:17;17.20;;;16.40;;
15281;SDS011;7742;44.320;19.820;2023-06-14T14:41:44;17.93;;;17.03;;
15281;SDS011;7742;44.320;19.820;2023-06-14T14:44:10;17.50;;;16.50;;
15281;SDS011;7742;44.320;19.820;2023-06-14T14:46:37;17.97;;;17.03;;
15281;SDS011;7742;44.320;19.820;2023-06-14T14:49:04;18.33;;;16.97;;
15281;SDS011;7742;44.320;19.820;2023-06-14T14:51:31;17.57;;;16.77;;
15281;SDS011;7742;44.320;19.820;2023-06-14T14:53:58;17.50;;;16.50;;
15281;SDS011;7742;44.320;19.820;2023-06-14T14:56:27;17.70;;;16.80;;
15281;SDS011;7742;44.320;19.820;2023-06-14T14:58:53;18.23;;;17.13;;
15281;SDS011;7742;44.320;19.820;2023-06-14T15:01:20;17.97;;;16.97;;
15281;SDS011;7742;44.320;19.820;2023-06-14T15:03:47;18.13;;;16.93;;
15281;SDS011;7742;44.320;19.820;2023-06-14T15:06:14;18.27;;;17.17;;
15281;SDS011;7742;44.320;19.820;2023-06-14T15:08:43;18.70;;;17.70;;
15281;SDS011;7742;44.320;19.820;2023-06-14T15:11:10;18.50;;;17.60;;
15281;SDS011;7742;44.320;19.820;2023-06-14T15:13:38;18.83;;;17.73;;
15281;SDS011;7742;44.320;19.820;2023-06-14T15:16:05;18.43;;;17.53;;
15281;SDS011;7742;44.320;19.820;2023-06-14T15:18:32;18.30;;;17.17;;
15281;SDS011;7742;44.320;19.820;2023-06-14T15:20:59;17.80;;;16.80;;
15281;SDS011;7742;44.320;19.820;2023-06-14T15:23:26;18.07;;;16.60;;
15281;SDS011;7742;44.320;19.820;2023-06-14T15:25:53;18.47;;;17.47;;
15281;SDS011;7742;44.320;19.820;2023-06-14T15:28:20;18.80;;;17.70;;
15281;SDS011;7742;44.320;19.820;2023-06-14T15:30:51;19.10;;;17.90;;
15281;SDS011;7742;44.320;19.820;2023-06-14T15:33:18;19.33;;;18.03;;
15281;SDS011;7742;44.320;19.820;2023-06-14T15:35:46;19.40;;;18.20;;
15281;SDS011;7742;44.320;19.820;2023-06-14T15:38:13;19.33;;;18.20;;
15281;SDS011;7742;44.320;19.820;2023-06-14T15:40:40;18.77;;;17.50;;
15281;SDS011;7742;44.320;19.820;2023-06-14T15:43:07;18.67;;;17.57;;
15281;SDS011;7742;44.320;19.820;2023-06-14T15:45:34;18.60;;;17.37;;
15281;SDS011;7742;44.320;19.820;2023-06-14T15:48:04;18.63;;;17.43;;
15281;SDS011;7742;44.320;19.820;2023-06-14T15:50:31;18.67;;;17.47;;
15281;SDS011;7742;44.320;19.820;2023-06-14T15:52:58;18.77;;;17.50;;
15281;SDS011;7742;44.320;19.820;2023-06-14T15:55:25;19.50;;;18.30;;